New Bedford Regional Airport New Bedford US
ICAO: KEWB
IATA: EWB
Category: Medium
Scheduled Services: Yes

Elevation: 80 ft
TransAlt. 18000 ft.

Airport Communications:
PROVIDENCE APP/DEP:128.7
ATIS:126.85
CTAF:118.1
GND:121.9
TWR:118.1
UNICOM:122.95

KEWB Zoom In..

Runways:

(A) RW 05 length 4997 ft width 150 ft
ILS 109.70 / hdg 54

(B) RW 14 length 5000 ft width 150 ft
---- / hdg 144

(C) RW 23 length 4997 ft width 150 ft
---- / hdg 234

(D) RW 32 length 5000 ft width 150 ft
---- / hdg 324

Location; KEWB
Day. 01 / Time. 17.10 Zulu
* Altimeter: 29.52
* Temperature: 16° c. 60.8°f.
* Wind from: 210° Speed 22 kn with Gusts up to 27 kn.
Dewpoint: 13° c.
Visibility: 10 Statute Miles.
Clouds: Scattered 1300 ft.
Clouds: Broken 1800 ft.
Clouds: Overcast 6000 ft.

KEWB 011710Z 21022G27KT 10SM SCT013 BKN018 OVC060 16/13 A2952 RMK AO2 PK WND 19027/1709 T01560128

Going to: --> -->


Wind From 210°
Speed 22 kn.

 
 
jpsmedia worldairports.se 2020   terms of use